0TS2 weather

Ultralight International Ultralightport
Haslet, Texas, United States

Public forecast

Using degrees Fahrenheit for public forecast. Weather courtesy of forecast.io.

Closest aviation weather report (METAR) to Ultralight International Ultralightport

Closest report is Fort Worth Alliance Airport, 2.4 nm (4.4 km) NNE. Retrieved 2020/02/21 01:53 UTC (1 hour ago):

KAFW 210153Z 36011KT 10SM CLR 05/M01 A3064 RMK AO2 SLP384 T00501011

Closest aviation forecast (TAF) to Ultralight International Ultralightport

Closest forecast is Fort Worth Alliance Airport, 2.4 nm (4.4 km) NNE. Retrieved 2020-02-21 00:30 UTC (2 hours ago):

TAF KAFW 202327Z 2100/2124 01017KT P6SM SCT050 FM210900 36006KT P6SM SKC FM211500 03006KT P6SM FEW250